createdAt,value
2022-09-23T00:02:12.436Z,8.77
2022-09-23T00:04:41.673Z,6.22
2022-09-23T00:07:09.999Z,8.65
2022-09-23T00:09:38.179Z,8.52
2022-09-23T00:12:09.035Z,8.45
2022-09-23T00:14:40.095Z,9.07
2022-09-23T00:17:08.189Z,7.20
2022-09-23T00:19:36.625Z,7.75
2022-09-23T00:22:05.134Z,5.88
2022-09-23T00:24:33.494Z,7.30
2022-09-23T00:27:01.782Z,9.82
2022-09-23T00:29:29.915Z,6.00
2022-09-23T00:31:59.514Z,6.95
2022-09-23T00:34:27.678Z,9.57
2022-09-23T00:36:56.937Z,7.18
2022-09-23T00:39:26.130Z,6.32
2022-09-23T00:41:55.259Z,6.45
2022-09-23T00:44:42.839Z,7.47
2022-09-23T00:47:19.367Z,6.93
2022-09-23T00:49:53.655Z,6.57
2022-09-23T00:52:25.524Z,7.07
2022-09-23T00:54:56.477Z,5.25
2022-09-23T00:57:26.623Z,11.77
2022-09-23T00:59:55.171Z,5.25
2022-09-23T01:02:24.871Z,7.07
2022-09-23T01:04:53.334Z,7.30
2022-09-23T01:07:21.907Z,5.75
2022-09-23T01:09:50.884Z,6.03
2022-09-23T01:12:31.489Z,7.53
2022-09-23T01:15:08.967Z,7.25
2022-09-23T01:17:44.857Z,8.35
2022-09-23T01:20:48.175Z,6.72
2022-09-23T01:23:43.920Z,9.02
2022-09-23T01:26:29.514Z,7.53
2022-09-23T01:29:17.815Z,6.35
2022-09-23T01:31:55.173Z,7.15
2022-09-23T01:34:27.009Z,7.78
2022-09-23T01:37:00.423Z,12.15
2022-09-23T01:39:36.395Z,6.50
2022-09-23T01:42:17.065Z,10.27
2022-09-23T01:44:49.765Z,7.18
2022-09-23T01:47:22.837Z,6.22
2022-09-23T01:49:55.237Z,9.02
2022-09-23T01:52:29.571Z,10.75
2022-09-23T01:55:02.675Z,8.30
2022-09-23T01:57:34.833Z,8.27
2022-09-23T02:00:07.996Z,8.55
2022-09-23T02:02:44.449Z,4.77
2022-09-23T02:05:18.800Z,6.32
2022-09-23T02:07:52.982Z,6.80
2022-09-23T02:12:57.457Z,9.55
2022-09-23T02:15:31.446Z,6.30
2022-09-23T02:18:04.546Z,7.80
2022-09-23T02:20:36.830Z,7.55
2022-09-23T02:23:08.769Z,7.18
2022-09-23T02:25:43.722Z,9.10
2022-09-23T02:28:17.243Z,6.47
2022-09-23T02:30:53.839Z,8.20
2022-09-23T02:33:29.991Z,7.72
2022-09-23T02:36:04.494Z,10.93
2022-09-23T02:38:38.529Z,6.45
2022-09-23T02:41:11.082Z,6.63
2022-09-23T02:43:47.442Z,9.00
2022-09-23T02:46:16.307Z,9.38
2022-09-23T02:48:50.579Z,9.23
2022-09-23T02:51:19.269Z,6.88
2022-09-23T02:53:48.910Z,8.40
2022-09-23T02:56:19.648Z,14.43
2022-09-23T02:58:48.406Z,9.25
2022-09-23T03:01:32.743Z,8.68
2022-09-23T03:04:13.103Z,10.85
2022-09-23T03:06:49.222Z,7.72
2022-09-23T03:09:23.994Z,12.18
2022-09-23T03:11:58.842Z,12.00
2022-09-23T03:14:31.796Z,13.45
2022-09-23T03:17:05.250Z,9.18
2022-09-23T03:19:41.961Z,9.30
2022-09-23T03:22:13.544Z,12.68
2022-09-23T03:24:45.223Z,9.55
2022-09-23T03:27:17.845Z,9.85
2022-09-23T03:29:48.948Z,12.27
2022-09-23T03:32:20.428Z,13.10
2022-09-23T03:34:52.759Z,11.70
2022-09-23T03:37:26.288Z,11.55
2022-09-23T03:39:58.522Z,15.52
2022-09-23T03:42:30.143Z,11.63
2022-09-23T03:44:59.075Z,14.18
2022-09-23T03:47:31.220Z,15.07
2022-09-23T03:50:00.816Z,13.32
2022-09-23T03:52:29.641Z,12.65
2022-09-23T03:54:57.985Z,12.60
2022-09-23T03:57:26.506Z,12.13
2022-09-23T03:59:55.098Z,9.10
2022-09-23T04:02:23.200Z,12.93
2022-09-23T04:04:51.653Z,10.13
2022-09-23T04:07:21.235Z,10.50
2022-09-23T04:09:49.269Z,17.33
2022-09-23T04:12:18.254Z,14.85
2022-09-23T04:14:47.084Z,12.02
2022-09-23T04:17:15.518Z,11.23
2022-09-23T04:19:43.751Z,12.95
2022-09-23T04:22:12.106Z,13.32
2022-09-23T04:24:43.790Z,14.20
2022-09-23T04:27:12.100Z,16.83
2022-09-23T04:29:40.099Z,13.32
2022-09-23T04:32:08.312Z,13.68
2022-09-23T04:34:36.460Z,13.35
2022-09-23T04:37:05.016Z,17.50
2022-09-23T04:39:33.142Z,12.07
2022-09-23T04:42:04.268Z,13.07
2022-09-23T04:44:33.042Z,13.45
2022-09-23T04:47:01.051Z,12.50
2022-09-23T04:49:32.562Z,13.95
2022-09-23T04:52:00.674Z,11.35
2022-09-23T04:54:29.513Z,11.43
2022-09-23T04:56:57.638Z,13.52
2022-09-23T04:59:27.110Z,13.73
2022-09-23T05:01:55.573Z,15.48
2022-09-23T05:04:23.666Z,15.88
2022-09-23T05:06:51.780Z,15.75
2022-09-23T05:09:20.071Z,13.13
2022-09-23T05:11:48.235Z,13.75
2022-09-23T05:14:16.431Z,11.00
2022-09-23T05:16:45.983Z,14.57
2022-09-23T05:19:14.211Z,17.42
2022-09-23T05:21:42.492Z,15.30
2022-09-23T05:24:10.835Z,13.13
2022-09-23T05:26:39.425Z,18.35
2022-09-23T05:29:07.947Z,12.77
2022-09-23T05:31:36.822Z,13.20
2022-09-23T05:34:07.238Z,15.52
2022-09-23T05:36:38.612Z,13.52
2022-09-23T05:39:09.353Z,17.30
2022-09-23T05:41:38.544Z,12.98
2022-09-23T05:44:06.911Z,12.80
2022-09-23T05:46:35.251Z,13.82
2022-09-23T05:49:04.413Z,13.23
2022-09-23T05:51:35.901Z,16.20
2022-09-23T05:54:04.495Z,16.00
2022-09-23T05:56:33.975Z,14.68
2022-09-23T05:59:03.537Z,13.88
2022-09-23T06:01:34.374Z,17.48
2022-09-23T06:04:04.730Z,21.55
2022-09-23T06:06:37.074Z,16.08
2022-09-23T06:09:05.798Z,14.30
2022-09-23T06:11:35.708Z,15.40
2022-09-23T06:14:04.409Z,17.98
2022-09-23T06:16:35.129Z,13.20
2022-09-23T06:19:06.898Z,18.83
2022-09-23T06:21:38.206Z,13.25
2022-09-23T06:24:07.926Z,12.63
2022-09-23T06:26:38.103Z,18.20
2022-09-23T06:29:12.628Z,12.38
2022-09-23T06:31:42.228Z,13.82
2022-09-23T06:34:13.415Z,15.90
2022-09-23T06:36:45.828Z,14.48
2022-09-23T06:39:15.346Z,15.25
2022-09-23T06:41:43.680Z,13.10
2022-09-23T06:44:12.003Z,18.02
2022-09-23T06:46:40.160Z,12.18
2022-09-23T06:49:08.358Z,14.98
2022-09-23T06:51:36.982Z,15.65
2022-09-23T06:54:06.804Z,15.18
2022-09-23T06:56:39.104Z,14.32
2022-09-23T06:59:08.991Z,17.33
2022-09-23T07:01:37.223Z,13.98
2022-09-23T07:04:05.448Z,14.63
2022-09-23T07:06:33.601Z,15.07
2022-09-23T07:09:03.318Z,14.48
2022-09-23T07:11:33.035Z,13.63
2022-09-23T07:14:01.256Z,18.58
2022-09-23T07:16:29.510Z,17.30
2022-09-23T07:18:57.835Z,14.75
2022-09-23T07:21:26.369Z,17.65
2022-09-23T07:23:55.274Z,15.15
2022-09-23T07:26:23.581Z,16.05
2022-09-23T07:28:56.999Z,14.82
2022-09-23T07:31:37.498Z,13.73
2022-09-23T07:34:07.639Z,12.23
2022-09-23T07:36:37.401Z,11.40
2022-09-23T07:39:06.256Z,13.00
2022-09-23T07:41:35.228Z,15.32
2022-09-23T07:44:06.488Z,12.48
2022-09-23T07:46:36.506Z,14.75
2022-09-23T07:49:05.976Z,13.70
2022-09-23T07:51:36.781Z,13.07
2022-09-23T07:54:07.930Z,12.88
2022-09-23T07:56:37.346Z,16.55
2022-09-23T07:59:09.433Z,14.85
2022-09-23T08:01:39.988Z,11.25
2022-09-23T08:04:11.507Z,16.63
2022-09-23T08:06:42.700Z,12.27
2022-09-23T08:09:11.509Z,16.58
2022-09-23T08:11:42.184Z,14.98
2022-09-23T08:14:13.710Z,11.82
2022-09-23T08:16:44.152Z,9.70
2022-09-23T08:19:13.237Z,13.02
2022-09-23T08:21:41.861Z,15.88
2022-09-23T08:24:14.240Z,14.60
2022-09-23T08:26:42.433Z,11.68
2022-09-23T08:29:14.008Z,13.38
2022-09-23T08:31:42.145Z,13.70
2022-09-23T08:34:10.306Z,19.95
2022-09-23T08:36:39.883Z,16.83
2022-09-23T08:39:08.305Z,22.33
2022-09-23T08:41:43.568Z,12.23
2022-09-23T08:44:17.166Z,9.88
2022-09-23T08:46:50.851Z,12.38
2022-09-23T08:49:26.817Z,15.85
2022-09-23T08:51:56.951Z,15.93
2022-09-23T08:54:28.399Z,13.63
2022-09-23T08:57:00.964Z,10.52
2022-09-23T08:59:38.274Z,13.20
2022-09-23T09:02:12.731Z,11.93
2022-09-23T09:04:44.863Z,15.98
2022-09-23T09:07:35.733Z,15.15
2022-09-23T09:10:10.541Z,14.75
2022-09-23T09:12:43.508Z,12.60
2022-09-23T09:15:16.647Z,13.45
2022-09-23T09:17:59.324Z,14.95
2022-09-23T09:20:39.052Z,18.13
2022-09-23T09:23:20.163Z,22.63
2022-09-23T09:25:50.862Z,13.93
2022-09-23T09:28:24.753Z,12.35
2022-09-23T09:30:57.727Z,16.45
2022-09-23T09:33:30.596Z,14.70
2022-09-23T09:36:09.010Z,11.25
2022-09-23T09:38:37.962Z,16.60
2022-09-23T09:41:14.932Z,25.27
2022-09-23T09:43:48.715Z,11.00
2022-09-23T09:46:33.367Z,11.63
2022-09-23T09:49:05.974Z,11.77
2022-09-23T09:51:34.055Z,15.00
2022-09-23T09:54:18.861Z,12.68
2022-09-23T09:59:25.134Z,11.25
2022-09-23T10:02:14.527Z,13.38
2022-09-23T10:04:42.898Z,19.45
2022-09-23T10:07:14.704Z,13.52
2022-09-23T10:09:51.018Z,8.55
2022-09-23T10:12:20.729Z,14.00
2022-09-23T10:14:51.535Z,19.45
2022-09-23T10:17:23.222Z,8.95
2022-09-23T10:19:58.104Z,8.35
2022-09-23T10:22:30.016Z,11.95
2022-09-23T10:25:03.438Z,9.68
2022-09-23T10:27:33.684Z,9.23
2022-09-23T10:30:04.221Z,11.65
2022-09-23T10:32:37.382Z,19.00
2022-09-23T10:35:16.773Z,12.07
2022-09-23T10:37:48.481Z,11.23
2022-09-23T10:40:45.558Z,19.95
2022-09-23T10:43:40.565Z,20.00
2022-09-23T10:49:18.982Z,11.10
2022-09-23T10:51:57.956Z,8.88
2022-09-23T10:54:34.583Z,8.80
2022-09-23T10:57:29.226Z,12.77
2022-09-23T11:00:05.040Z,9.65
2022-09-23T11:02:54.795Z,12.40
2022-09-23T11:05:36.649Z,10.95
2022-09-23T11:08:20.768Z,15.57
2022-09-23T11:11:00.573Z,12.00
2022-09-23T11:13:43.826Z,11.00
2022-09-23T11:16:22.658Z,12.45
2022-09-23T11:19:34.409Z,11.35
2022-09-23T11:22:23.940Z,13.90
2022-09-23T11:25:26.712Z,12.88
2022-09-23T11:28:24.066Z,11.98
2022-09-23T11:31:04.197Z,13.18
2022-09-23T11:33:45.337Z,11.57
2022-09-23T11:36:21.803Z,10.70
2022-09-23T11:38:53.589Z,9.43
2022-09-23T11:41:25.729Z,11.07
2022-09-23T11:43:59.675Z,12.32
2022-09-23T11:46:35.146Z,9.95
2022-09-23T11:49:09.367Z,10.55
2022-09-23T11:54:20.622Z,9.95
2022-09-23T11:56:54.995Z,11.15
2022-09-23T11:59:39.986Z,11.77
2022-09-23T12:02:22.887Z,14.50
2022-09-23T12:05:01.430Z,12.27
2022-09-23T12:07:40.741Z,17.75
2022-09-23T12:10:11.986Z,12.80
2022-09-23T12:12:48.924Z,17.20
2022-09-23T12:15:30.082Z,12.80
2022-09-23T12:18:13.920Z,14.32
2022-09-23T12:20:54.678Z,9.25
2022-09-23T12:23:45.087Z,15.35
2022-09-23T12:26:19.202Z,14.55
2022-09-23T12:28:50.463Z,12.20
2022-09-23T12:31:20.736Z,15.05
2022-09-23T12:33:54.294Z,12.68
2022-09-23T12:36:28.677Z,13.30
2022-09-23T12:39:03.244Z,20.77
2022-09-23T12:41:37.534Z,15.20
2022-09-23T12:44:27.414Z,15.80
2022-09-23T12:47:29.538Z,10.98
2022-09-23T12:49:58.207Z,15.95
2022-09-23T12:52:29.384Z,12.55
2022-09-23T12:54:58.995Z,12.65
2022-09-23T12:57:52.965Z,15.35
2022-09-23T13:00:27.442Z,14.90
2022-09-23T13:03:17.428Z,13.40
2022-09-23T13:06:06.231Z,11.95
2022-09-23T13:08:38.920Z,13.30
2022-09-23T13:11:18.008Z,16.13
2022-09-23T13:13:50.382Z,15.45
2022-09-23T13:16:23.938Z,15.48
2022-09-23T13:18:54.685Z,15.13
2022-09-23T13:21:52.470Z,10.63
2022-09-23T13:24:36.025Z,19.27
2022-09-23T13:27:12.443Z,14.57
2022-09-23T13:29:45.954Z,16.25
2022-09-23T13:32:17.708Z,9.90
2022-09-23T13:34:56.177Z,14.27
2022-09-23T13:37:26.403Z,9.82
2022-09-23T13:40:07.730Z,11.02
2022-09-23T13:42:39.921Z,12.52
2022-09-23T13:45:16.671Z,9.63
2022-09-23T13:47:46.268Z,13.40
2022-09-23T13:50:19.803Z,11.18
2022-09-23T13:52:52.365Z,10.52
2022-09-23T13:55:28.941Z,11.10
2022-09-23T13:58:02.245Z,11.27
2022-09-23T14:00:38.383Z,9.00
2022-09-23T14:03:19.171Z,10.93
2022-09-23T14:05:48.222Z,9.65
2022-09-23T14:08:16.487Z,8.45
2022-09-23T14:10:47.005Z,12.55
2022-09-23T14:13:22.403Z,8.45
2022-09-23T14:15:58.382Z,7.90
2022-09-23T14:18:39.461Z,10.82
2022-09-23T14:21:08.272Z,12.25
2022-09-23T14:23:36.736Z,9.38
2022-09-23T14:26:05.182Z,12.88
2022-09-23T14:28:33.516Z,11.10
2022-09-23T14:31:03.935Z,8.80
2022-09-23T14:33:34.721Z,8.05
2022-09-23T14:36:07.942Z,13.73
2022-09-23T14:38:52.265Z,30.30
2022-09-23T14:41:24.075Z,15.38
2022-09-23T14:43:58.710Z,14.45
2022-09-23T14:46:29.851Z,6.25
2022-09-23T14:49:02.952Z,8.13
2022-09-23T14:51:34.264Z,7.55
2022-09-23T14:54:37.283Z,15.45
2022-09-23T14:57:25.339Z,12.50
2022-09-23T14:59:56.130Z,11.23
2022-09-23T15:02:32.930Z,9.05
2022-09-23T15:05:19.490Z,12.25
2022-09-23T15:07:50.713Z,11.05
2022-09-23T15:10:23.740Z,17.38
2022-09-23T15:12:54.044Z,7.97
2022-09-23T15:15:28.258Z,7.22
2022-09-23T15:20:33.545Z,12.32
2022-09-23T15:23:02.097Z,9.02
2022-09-23T15:25:34.302Z,13.35
2022-09-23T15:28:05.920Z,7.93
2022-09-23T15:30:36.855Z,9.85
2022-09-23T15:33:06.906Z,15.13
2022-09-23T15:35:35.473Z,7.65
2022-09-23T15:38:04.073Z,10.82
2022-09-23T15:40:35.543Z,7.95
2022-09-23T15:43:20.249Z,9.00
2022-09-23T15:45:53.074Z,7.90
2022-09-23T15:48:25.737Z,10.05
2022-09-23T15:50:55.342Z,6.30
2022-09-23T15:53:25.586Z,9.40
2022-09-23T15:55:54.184Z,10.98
2022-09-23T15:58:23.649Z,9.35
2022-09-23T16:00:56.666Z,11.98
2022-09-23T16:03:29.143Z,11.00
2022-09-23T16:06:02.645Z,12.10
2022-09-23T16:08:33.235Z,11.43
2022-09-23T16:11:03.654Z,13.40
2022-09-23T16:13:31.842Z,10.35
2022-09-23T16:16:00.003Z,11.48
2022-09-23T16:18:29.846Z,11.05
2022-09-23T16:20:59.069Z,14.30
2022-09-23T16:23:36.084Z,11.48
2022-09-23T16:26:07.337Z,15.50
2022-09-23T16:28:35.508Z,13.52
2022-09-23T16:31:03.921Z,9.57
2022-09-23T16:33:33.867Z,14.23
2022-09-23T16:36:02.942Z,10.65
2022-09-23T16:38:32.047Z,12.43
2022-09-23T16:41:00.916Z,15.40
2022-09-23T16:43:31.801Z,12.18
2022-09-23T16:45:59.980Z,12.48
2022-09-23T16:48:28.574Z,11.43
2022-09-23T16:50:58.000Z,18.90
2022-09-23T16:53:29.562Z,14.30
2022-09-23T16:55:58.349Z,12.30
2022-09-23T16:58:26.515Z,22.35
2022-09-23T17:01:16.436Z,19.75
2022-09-23T17:03:44.621Z,16.30
2022-09-23T17:06:14.482Z,15.65
2022-09-23T17:08:44.818Z,15.93
2022-09-23T17:11:14.439Z,14.35
2022-09-23T17:13:42.756Z,13.93
2022-09-23T17:16:12.797Z,16.02
2022-09-23T17:18:40.806Z,17.05
2022-09-23T17:21:09.451Z,20.27
2022-09-23T17:23:38.894Z,19.13
2022-09-23T17:26:09.779Z,16.30
2022-09-23T17:28:38.266Z,15.45
2022-09-23T17:31:08.852Z,21.10
2022-09-23T17:33:39.166Z,16.60
2022-09-23T17:36:09.539Z,20.80
2022-09-23T17:38:40.221Z,19.55
2022-09-23T17:41:10.057Z,24.23
2022-09-23T17:43:39.500Z,23.10
2022-09-23T17:46:10.179Z,23.27
2022-09-23T17:48:41.444Z,24.65
2022-09-23T17:51:12.425Z,25.40
2022-09-23T17:53:43.326Z,19.73
2022-09-23T17:56:14.719Z,21.92
2022-09-23T17:58:43.141Z,27.55
2022-09-23T18:01:13.279Z,67.10
2022-09-23T18:03:43.370Z,67.97
2022-09-23T18:06:13.695Z,49.45
2022-09-23T18:08:46.215Z,30.25
2022-09-23T18:11:19.467Z,28.23
2022-09-23T18:13:52.757Z,23.65
2022-09-23T18:16:22.893Z,27.17
2022-09-23T18:18:52.647Z,21.45
2022-09-23T18:21:20.982Z,22.58
2022-09-23T18:23:51.681Z,29.75
2022-09-23T18:26:21.394Z,23.10
2022-09-23T18:28:49.808Z,26.58
2022-09-23T18:31:18.170Z,26.27
2022-09-23T18:33:50.648Z,23.20
2022-09-23T18:36:18.984Z,26.55
2022-09-23T18:38:47.952Z,23.85
2022-09-23T18:41:18.352Z,23.85
2022-09-23T18:43:48.695Z,24.48
2022-09-23T18:46:19.444Z,26.88
2022-09-23T18:49:05.373Z,26.15
2022-09-23T18:51:35.252Z,30.63
2022-09-23T18:54:05.481Z,30.17
2022-09-23T18:56:39.895Z,27.20
2022-09-23T18:59:09.500Z,28.15
2022-09-23T19:01:37.836Z,27.05
2022-09-23T19:04:06.834Z,25.83
2022-09-23T19:06:36.054Z,29.40
2022-09-23T19:09:06.643Z,25.67
2022-09-23T19:11:38.659Z,32.17
2022-09-23T19:14:11.045Z,31.25
2022-09-23T19:16:40.746Z,25.52
2022-09-23T19:19:09.690Z,26.48
2022-09-23T19:21:37.915Z,26.02
2022-09-23T19:24:08.370Z,28.42
2022-09-23T19:26:40.326Z,25.65
2022-09-23T19:29:13.885Z,32.28
2022-09-23T19:31:42.593Z,23.23
2022-09-23T19:34:14.353Z,25.63
2022-09-23T19:36:44.277Z,26.40
2022-09-23T19:39:17.147Z,29.73
2022-09-23T19:41:47.188Z,27.50
2022-09-23T19:44:16.649Z,30.00
2022-09-23T19:46:46.372Z,29.98
2022-09-23T19:49:15.322Z,28.33
2022-09-23T19:51:44.461Z,30.15
2022-09-23T19:54:13.070Z,29.42
2022-09-23T19:56:41.547Z,39.72
2022-09-23T19:59:14.151Z,29.60
2022-09-23T20:01:44.964Z,36.53
2022-09-23T20:04:13.348Z,35.60
2022-09-23T20:06:41.473Z,35.67
2022-09-23T20:09:10.177Z,33.80
2022-09-23T20:11:38.913Z,31.35
2022-09-23T20:14:07.152Z,32.85
2022-09-23T20:16:37.983Z,43.95
2022-09-23T20:19:06.601Z,28.52
2022-09-23T20:21:35.444Z,34.35
2022-09-23T20:24:06.789Z,31.65
2022-09-23T20:26:52.573Z,34.00
2022-09-23T20:29:20.783Z,32.28
2022-09-23T20:31:50.290Z,33.05
2022-09-23T20:34:18.854Z,32.85
2022-09-23T20:36:46.887Z,32.42
2022-09-23T20:39:15.161Z,33.35
2022-09-23T20:41:43.250Z,28.63
2022-09-23T20:44:14.034Z,28.33
2022-09-23T20:46:46.923Z,32.40
2022-09-23T20:49:18.707Z,21.30
2022-09-23T20:51:49.067Z,27.83
2022-09-23T20:54:18.979Z,27.25
2022-09-23T20:56:47.320Z,21.75
2022-09-23T20:59:17.844Z,23.38
2022-09-23T21:01:47.599Z,23.48
2022-09-23T21:04:18.126Z,24.17
2022-09-23T21:06:46.882Z,22.17
2022-09-23T21:09:15.006Z,22.80
2022-09-23T21:11:43.305Z,23.05
2022-09-23T21:14:11.608Z,21.20
2022-09-23T21:16:40.481Z,24.08
2022-09-23T21:19:09.100Z,24.23
2022-09-23T21:21:39.182Z,22.67
2022-09-23T21:24:36.110Z,25.73
2022-09-23T21:26:55.879Z,28.38
2022-09-23T21:29:24.262Z,25.67
2022-09-23T21:31:52.729Z,26.90
2022-09-23T21:34:20.973Z,23.33
2022-09-23T21:36:50.666Z,27.98
2022-09-23T21:39:19.470Z,29.98
2022-09-23T21:41:47.692Z,24.70
2022-09-23T21:44:16.060Z,31.10
2022-09-23T21:46:44.640Z,26.15
2022-09-23T21:49:13.233Z,25.90
2022-09-23T21:51:42.380Z,27.38
2022-09-23T21:54:15.746Z,25.88
2022-09-23T21:56:45.238Z,32.25
2022-09-23T21:59:13.666Z,29.63
2022-09-23T22:01:45.090Z,30.67
2022-09-23T22:04:17.490Z,28.63
2022-09-23T22:06:50.590Z,28.92
2022-09-23T22:09:22.046Z,27.67
2022-09-23T22:12:11.225Z,31.92
2022-09-23T22:14:39.569Z,26.95
2022-09-23T22:17:10.733Z,30.50
2022-09-23T22:19:45.782Z,28.48
2022-09-23T22:22:17.594Z,28.33
2022-09-23T22:24:48.061Z,28.73
2022-09-23T22:27:18.668Z,26.85
2022-09-23T22:30:04.506Z,33.15
2022-09-23T22:32:41.710Z,34.38
2022-09-23T22:35:11.154Z,32.67
2022-09-23T22:37:42.673Z,29.67
2022-09-23T22:40:15.123Z,31.65
2022-09-23T22:42:44.569Z,41.60
2022-09-23T22:45:13.621Z,35.55
2022-09-23T22:47:45.833Z,33.65
2022-09-23T22:50:15.286Z,37.40
2022-09-23T22:52:43.871Z,35.75
2022-09-23T22:55:14.149Z,36.75
2022-09-23T22:57:42.344Z,30.77
2022-09-23T23:00:12.152Z,36.95
2022-09-23T23:02:40.432Z,37.20
2022-09-23T23:05:09.448Z,38.00
2022-09-23T23:07:37.455Z,37.90
2022-09-23T23:10:08.926Z,35.00
2022-09-23T23:12:40.251Z,36.88
2022-09-23T23:15:12.735Z,40.30
2022-09-23T23:17:43.656Z,39.70
2022-09-23T23:20:11.980Z,37.63
2022-09-23T23:22:39.988Z,43.13
2022-09-23T23:25:09.778Z,34.30
2022-09-23T23:27:39.701Z,41.28
2022-09-23T23:30:09.456Z,38.58
2022-09-23T23:32:38.329Z,37.25
2022-09-23T23:35:07.350Z,38.28
2022-09-23T23:37:35.499Z,34.17
2022-09-23T23:40:04.210Z,40.42
2022-09-23T23:42:32.884Z,36.20
2022-09-23T23:45:02.661Z,33.40
2022-09-23T23:47:30.976Z,32.50
2022-09-23T23:49:59.154Z,35.72
2022-09-23T23:52:27.228Z,38.55
2022-09-23T23:54:55.536Z,35.58
2022-09-23T23:57:23.912Z,34.45
2022-09-23T23:59:52.097Z,32.15
